Main page
METAR-TAF:

METAR-TAF

Airports :

L. M. Clayton Airport

Wolf Point, Montana, United States

latitude: 48-05-40N, longitude: 105-34-38W, elevation: 1984 ft

METAR: missing

Time: 04:45 (11:45 UTC)

Forecast

The report was made 25 minutes ago, at 11:20 UTC
Forecast valid from 03 at 12 UTC to 04 at 12 UTC
Wind 7 mph from variable directions
Visibility: 6 miles
Scattered clouds at a height of 5000 ft
From 03 at 1800 UTC
Wind 12 mph from the West/Southwest
Visibility: 6 miles
Broken clouds at a height of 9000 ft
From 03 at 2000 UTC
Wind 14 mph from the West with gusts up to 23 mph
Visibility: 6 miles
Few clouds at a height of 12000 ft

TAF: KOLF 031120Z 0312/0412 VRB06KT P6SM SCT050 FM031800 25010KT P6SM BKN090 FM032000 26012G20KT P6SM FEW120

Weather observations and forecasts of more than 4000 airports (METAR and TAF reports).

The available stations are represented by yellow and red dots on the map.

Hover mouse over dot to see the name of the station.

Then click to see weather observations and forecasts.

To change the map : click on the green buttons with a black cross to zoom in, on the green button with a dash to zoom out, or on the green arrows for adjacent maps.


METAR-TAF: